Time;durP1;ratioP1;P1;durP2;ratioP2;P2;SDS_P1;SDS_P2;PMS_P1;PMS_P2;Temp;Humidity;BMP_temperature;BMP_pressure;BME280_temperature;BME280_humidity;BME280_pressure;Samples;Min_cycle;Max_cycle;Signal;HPM_P1;HPM_P2
2021/08/02 00:00:53;;;;;;;;;;;13.80;99.90;;;12.48;100.00;95488.97;10309605;28;2222;-81
2021/08/02 00:06:01;;;;;;;;;;;13.70;99.90;;;12.48;100.00;95488.97;10285121;28;2382;-82
2021/08/02 00:11:23;;;;;;;;;;;13.60;99.90;;;12.49;100.00;95479.78;10300569;28;2551;-82
2021/08/02 00:16:26;;;;;;;;;;;13.60;99.90;;;12.56;100.00;95496.41;10302343;28;2637;-81
2021/08/02 00:21:29;;;;;;;;;;;13.60;99.90;;;12.65;100.00;95489.25;10294967;28;2316;-81
2021/08/02 00:26:35;;;;;;;;;;;13.70;99.90;;;12.77;100.00;95489.59;10281706;28;2610;-82
2021/08/02 00:31:43;;;;;;;;;;;13.80;99.90;;;12.78;100.00;95485.00;10280976;28;2645;-81
2021/08/02 00:36:46;;;;;;;;;;;13.80;99.90;;;12.61;100.00;95485.53;10288999;28;2582;-81
2021/08/02 00:41:49;;;;;;;;;;;13.80;99.90;;;12.49;100.00;95486.00;10298518;28;2518;-80
2021/08/02 00:46:55;;;;;;;;;;;13.70;99.90;;;12.39;100.00;95484.22;10289537;28;2688;-81
2021/08/02 00:51:58;;;;;;;;;;;13.60;99.90;;;12.33;100.00;95489.97;10298485;28;1969;-82
2021/08/02 00:57:03;;;;;;;;;;;13.50;99.90;;;12.21;100.00;95482.31;10299958;28;2507;-81
2021/08/02 01:02:07;;;;;;;;;;;13.40;99.90;;;12.12;100.00;95492.16;10293163;28;2463;-81
2021/08/02 01:07:11;;;;;;;;;;;13.40;99.90;;;12.08;100.00;95491.13;10282115;28;2276;-81
2021/08/02 01:12:14;;;;;;;;;;;13.30;99.90;;;11.98;100.00;95492.06;10285879;28;2574;-83
2021/08/02 01:17:18;;;;;;;;;;;13.20;99.90;;;12.03;100.00;95493.91;10290634;28;2613;-79
2021/08/02 01:22:21;;;;;;;;;;;13.20;99.90;;;11.98;100.00;95493.97;10295668;28;2542;-80
2021/08/02 01:27:24;;;;;;;;;;;13.20;99.90;;;11.92;100.00;95490.53;10299935;28;1985;-83
2021/08/02 01:32:27;;;;;;;;;;;13.10;99.90;;;11.95;100.00;95487.25;10280250;28;2001;-83
2021/08/02 01:37:30;;;;;;;;;;;13.10;99.90;;;12.02;100.00;95497.66;10300742;28;2572;-79
2021/08/02 01:42:32;;;;;;;;;;;13.10;99.90;;;12.01;100.00;95502.25;10282638;28;2155;-83
2021/08/02 01:47:37;;;;;;;;;;;13.10;99.90;;;12.16;100.00;95506.66;10291917;28;2497;-83
2021/08/02 01:52:40;;;;;;;;;;;13.20;99.90;;;12.24;100.00;95505.22;10298160;28;2555;-83
2021/08/02 01:57:43;;;;;;;;;;;13.20;99.90;;;12.11;100.00;95507.53;10290375;28;2621;-81
2021/08/02 02:02:48;;;;;;;;;;;13.30;99.90;;;12.12;100.00;95511.81;10300247;28;1839;-81
2021/08/02 02:07:51;;;;;;;;;;;13.30;99.90;;;12.17;100.00;95516.34;10287709;28;2895;-79
2021/08/02 02:12:54;;;;;;;;;;;13.30;99.90;;;12.12;100.00;95519.09;10300937;28;2514;-81
2021/08/02 02:17:56;;;;;;;;;;;13.20;99.90;;;12.23;100.00;95520.59;10310723;28;2043;-82
2021/08/02 02:22:59;;;;;;;;;;;13.30;99.90;;;12.28;100.00;95525.91;10314710;28;2450;-81
2021/08/02 02:28:02;;;;;;;;;;;13.30;99.90;;;12.30;100.00;95515.63;10316528;28;2435;-82
2021/08/02 02:33:05;;;;;;;;;;;13.40;99.90;;;12.36;100.00;95519.88;10309842;28;2704;-79
2021/08/02 02:38:08;;;;;;;;;;;13.40;99.90;;;12.40;100.00;95510.09;10305909;28;2579;-82
2021/08/02 02:43:11;;;;;;;;;;;13.40;99.90;;;12.55;100.00;95519.06;10306220;28;2405;-80
2021/08/02 02:48:14;;;;;;;;;;;13.50;99.90;;;12.61;100.00;95518.69;10296205;28;2563;-83
2021/08/02 02:53:17;;;;;;;;;;;13.60;99.90;;;12.60;100.00;95525.19;10299831;28;2490;-81
2021/08/02 02:58:20;;;;;;;;;;;13.60;99.90;;;12.65;100.00;95521.59;10291894;28;2142;-82
2021/08/02 03:03:23;;;;;;;;;;;13.70;99.90;;;12.65;100.00;95519.69;10280797;28;2479;-80
2021/08/02 03:08:26;;;;;;;;;;;13.70;99.90;;;12.64;100.00;95520.00;10275246;28;2978;-83
2021/08/02 03:13:28;;;;;;;;;;;13.70;99.90;;;12.61;100.00;95526.78;10294252;28;2488;-83
2021/08/02 03:18:31;;;;;;;;;;;13.70;99.90;;;12.66;100.00;95529.41;10275951;28;2515;-82
2021/08/02 03:23:34;;;;;;;;;;;13.70;99.90;;;12.74;100.00;95530.66;10290384;28;1905;-82
2021/08/02 03:28:37;;;;;;;;;;;13.80;99.90;;;12.78;100.00;95526.25;10285585;28;2144;-83
2021/08/02 03:33:40;;;;;;;;;;;13.80;99.90;;;12.84;100.00;95529.69;10314444;28;2626;-82
2021/08/02 03:38:43;;;;;;;;;;;13.80;99.90;;;12.79;100.00;95522.47;10313822;28;2572;-82
2021/08/02 03:43:46;;;;;;;;;;;13.90;99.90;;;12.67;100.00;95531.00;10319050;28;1897;-79
2021/08/02 03:48:48;;;;;;;;;;;13.80;99.90;;;12.66;100.00;95536.69;10304228;28;1989;-81
2021/08/02 03:53:51;;;;;;;;;;;13.80;99.90;;;12.73;100.00;95544.44;10299426;28;1869;-82
2021/08/02 03:58:54;;;;;;;;;;;13.80;99.90;;;12.76;100.00;95552.72;10299438;28;2460;-81
2021/08/02 04:03:57;;;;;;;;;;;13.80;99.90;;;12.81;100.00;95566.13;10311991;28;1981;-82
2021/08/02 04:09:04;;;;;;;;;;;13.90;99.90;;;12.79;100.00;95575.59;10305050;28;2609;-82
2021/08/02 04:14:07;;;;;;;;;;;13.90;99.90;;;12.80;100.00;95586.13;10296665;28;2475;-81
2021/08/02 04:19:30;;;;;;;;;;;13.90;99.90;;;12.96;99.41;95592.09;10292616;28;2507;-82
2021/08/02 04:24:33;;;;;;;;;;;14.00;99.90;;;13.17;98.59;95598.00;10285561;28;2593;-81
2021/08/02 04:29:36;;;;;;;;;;;14.10;99.90;;;13.28;98.03;95604.84;10302222;28;2575;-82
2021/08/02 04:34:40;;;;;;;;;;;14.20;99.90;;;13.56;96.88;95600.34;10296397;28;3045;-83
2021/08/02 04:39:43;;;;;;;;;;;14.40;99.90;;;13.87;94.01;95600.59;10297331;28;2538;-80
2021/08/02 04:44:46;;;;;;;;;;;14.60;99.90;;;14.18;92.17;95608.09;10295292;28;2563;-82
2021/08/02 04:49:49;;;;;;;;;;;14.90;99.90;;;14.16;90.35;95615.72;10300022;28;2537;-81
2021/08/02 04:54:52;;;;;;;;;;;15.00;99.90;;;13.95;92.00;95602.59;10297605;28;2563;-83
2021/08/02 04:59:55;;;;;;;;;;;15.00;99.90;;;14.10;91.02;95603.41;10282437;28;2577;-83
2021/08/02 05:05:00;;;;;;;;;;;14.90;99.90;;;14.08;91.97;95601.00;10294112;28;2510;-84
2021/08/02 05:10:03;;;;;;;;;;;15.00;99.90;;;14.43;90.11;95607.59;10289670;28;2962;-83
2021/08/02 05:15:06;;;;;;;;;;;15.10;99.90;;;14.59;89.76;95595.41;10291529;28;1959;-80
2021/08/02 05:20:09;;;;;;;;;;;15.30;99.90;;;14.65;87.36;95606.13;10298723;28;2443;-81
2021/08/02 05:25:12;;;;;;;;;;;15.40;99.90;;;14.82;86.34;95596.28;10301866;28;2629;-83
2021/08/02 05:30:16;;;;;;;;;;;15.50;99.90;;;15.25;83.94;95597.72;10290402;28;2400;-82
2021/08/02 05:35:19;;;;;;;;;;;15.80;99.90;;;15.61;82.96;95597.66;10287089;28;2479;-83
2021/08/02 05:40:23;;;;;;;;;;;16.10;99.90;;;15.98;80.23;95599.16;10303663;28;2487;-79
2021/08/02 05:45:26;;;;;;;;;;;16.50;99.90;;;16.19;78.34;95597.50;10314862;28;2488;-80
2021/08/02 05:50:29;;;;;;;;;;;16.70;99.90;;;16.48;77.49;95604.31;10298542;28;2578;-80
2021/08/02 05:55:32;;;;;;;;;;;16.90;99.90;;;16.78;76.83;95602.63;10291898;28;2582;-83
2021/08/02 06:00:36;;;;;;;;;;;17.20;99.90;;;16.92;75.22;95613.34;10288613;28;2156;-83
2021/08/02 06:05:39;;;;;;;;;;;17.30;99.90;;;16.88;75.04;95612.41;10286615;28;2510;-82
2021/08/02 06:10:42;;;;;;;;;;;17.40;99.90;;;17.14;73.79;95615.13;10327325;28;2560;-82
2021/08/02 06:15:46;;;;;;;;;;;17.50;99.90;;;17.56;72.07;95616.25;10318177;28;2198;-79
2021/08/02 06:20:48;;;;;;;;;;;17.90;99.90;;;17.66;71.92;95624.06;10295512;28;2233;-78
2021/08/02 06:25:52;;;;;;;;;;;18.20;99.90;;;17.83;70.43;95640.38;10284908;28;2471;-81
2021/08/02 06:31:00;;;;;;;;;;;18.40;99.90;;;17.90;70.31;95641.81;10299320;28;2450;-79
2021/08/02 06:36:03;;;;;;;;;;;18.50;99.90;;;17.95;71.63;95649.81;10299901;28;2530;-80
2021/08/02 06:41:06;;;;;;;;;;;18.60;99.90;;;18.24;68.10;95647.16;10298344;28;2543;-81
2021/08/02 06:46:08;;;;;;;;;;;18.80;99.90;;;18.26;67.15;95644.13;10300648;28;2440;-79
2021/08/02 06:51:12;;;;;;;;;;;18.90;99.90;;;18.45;66.54;95646.41;10295695;28;2566;-81
2021/08/02 06:56:15;;;;;;;;;;;18.90;99.90;;;18.89;64.77;95647.84;10303288;28;2599;-80
2021/08/02 07:01:18;;;;;;;;;;;19.20;99.90;;;19.70;62.76;95647.41;10295566;28;2499;-79
2021/08/02 07:06:21;;;;;;;;;;;19.80;99.90;;;19.46;62.21;95652.72;10274760;28;2559;-81
2021/08/02 07:11:24;;;;;;;;;;;20.20;99.90;;;19.46;62.15;95650.00;10284440;28;2491;-80
2021/08/02 07:16:26;;;;;;;;;;;20.00;99.90;;;18.86;62.80;95654.75;10293519;28;2494;-80
2021/08/02 07:21:29;;;;;;;;;;;19.80;99.90;;;19.15;62.32;95650.41;10289123;28;2530;-81
2021/08/02 07:26:32;;;;;;;;;;;19.80;99.90;;;19.21;64.26;95648.28;10283248;28;2460;-81
2021/08/02 07:31:35;;;;;;;;;;;19.80;99.90;;;18.77;64.87;95656.72;10298117;28;2494;-82
2021/08/02 07:36:38;;;;;;;;;;;19.60;99.90;;;19.44;60.95;95650.34;10304837;28;2572;-81
2021/08/02 07:41:40;;;;;;;;;;;19.80;99.90;;;20.00;58.26;95646.50;10306227;28;2460;-82
2021/08/02 07:46:43;;;;;;;;;;;20.20;99.90;;;19.49;59.85;95648.56;10310550;28;2551;-80
2021/08/02 07:51:46;;;;;;;;;;;20.20;99.90;;;19.40;62.94;95645.88;10305403;28;2597;-79
2021/08/02 07:56:49;;;;;;;;;;;20.00;99.90;;;19.42;60.42;95644.44;10306869;28;2908;-80
2021/08/02 08:01:52;;;;;;;;;;;20.10;99.90;;;19.21;61.84;95645.53;10295705;28;2583;-81
2021/08/02 08:06:55;;;;;;;;;;;20.00;99.90;;;19.54;62.44;95637.47;10312125;28;2520;-80
2021/08/02 08:11:58;;;;;;;;;;;20.10;99.90;;;18.40;64.49;95647.41;10308173;28;2420;-78
2021/08/02 08:17:01;;;;;;;;;;;19.90;99.90;;;19.28;62.58;95643.91;10293909;28;2942;-81
2021/08/02 08:22:03;;;;;;;;;;;19.80;99.90;;;19.35;62.14;95646.09;10291923;28;2499;-81
2021/08/02 08:27:06;;;;;;;;;;;19.90;99.90;;;19.61;63.01;95651.38;10309978;28;2187;-81
2021/08/02 08:32:09;;;;;;;;;;;20.10;99.90;;;19.30;61.35;95651.75;10315283;28;2471;-80
2021/08/02 08:37:12;;;;;;;;;;;20.10;99.90;;;19.20;61.36;95657.56;10329789;28;2132;-80
2021/08/02 08:42:15;;;;;;;;;;;19.90;99.90;;;19.55;61.43;95660.84;10311971;28;2170;-81
2021/08/02 08:47:18;;;;;;;;;;;19.80;99.90;;;19.53;58.50;95661.19;10300308;28;2768;-78
2021/08/02 08:52:21;;;;;;;;;;;20.20;99.90;;;19.42;60.01;95658.06;10306698;28;2741;-81
2021/08/02 09:02:48;;;;;;;;;;;20.00;99.90;;;19.09;62.01;95657.19;10310026;28;2111;-81
2021/08/02 09:07:51;;;;;;;;;;;19.90;99.90;;;19.24;60.34;95656.59;10285690;28;2442;-81
2021/08/02 09:12:54;;;;;;;;;;;19.80;99.90;;;19.48;59.79;95658.66;10292080;28;2129;-82
2021/08/02 09:17:57;;;;;;;;;;;20.00;99.90;;;19.86;57.95;95658.53;10296969;28;2675;-83
2021/08/02 09:23:00;;;;;;;;;;;20.40;99.90;;;20.97;54.67;95654.84;10291741;28;2705;-81
2021/08/02 09:28:10;;;;;;;;;;;21.00;99.90;;;20.47;55.18;95658.69;10289291;28;2234;-81
2021/08/02 09:33:12;;;;;;;;;;;21.10;99.90;;;19.92;56.05;95653.66;10284299;28;2685;-81
2021/08/02 09:38:15;;;;;;;;;;;20.80;99.90;;;19.87;56.57;95651.94;10278883;28;2742;-79
2021/08/02 09:43:19;;;;;;;;;;;20.40;99.90;;;19.47;58.81;95664.44;10287538;28;2150;-80
2021/08/02 09:48:42;;;;;;;;;;;20.20;99.90;;;19.12;58.83;95657.31;10288784;28;2299;-79
2021/08/02 09:53:46;;;;;;;;;;;20.00;99.90;;;21.07;53.98;95652.78;10281709;28;2738;-80
2021/08/02 09:58:48;;;;;;;;;;;20.80;99.90;;;21.94;51.19;95650.25;10284014;28;2736;-80
2021/08/02 10:03:51;;;;;;;;;;;22.00;99.90;;;21.64;51.61;95654.50;10273888;28;2761;-79
2021/08/02 10:08:55;;;;;;;;;;;22.60;99.90;;;21.79;51.52;95642.81;10288275;28;2792;-81
2021/08/02 10:13:58;;;;;;;;;;;22.20;99.90;;;20.10;54.17;95644.13;10285620;28;2741;-78
2021/08/02 10:19:01;;;;;;;;;;;21.60;99.90;;;20.58;53.42;95652.78;10297691;28;2717;-81
2021/08/02 10:24:03;;;;;;;;;;;21.10;99.90;;;20.56;53.12;95649.63;10286472;28;2476;-79
2021/08/02 10:29:07;;;;;;;;;;;21.20;99.90;;;21.17;52.42;95642.16;10285917;28;2575;-81
2021/08/02 10:34:11;;;;;;;;;;;21.40;99.90;;;20.83;52.00;95639.94;10292762;28;2353;-81
2021/08/02 10:39:14;;;;;;;;;;;21.80;99.90;;;21.80;49.38;95630.72;10291806;28;2295;-80
2021/08/02 10:44:19;;;;;;;;;;;22.20;99.90;;;21.31;50.56;95625.41;10310273;28;2305;-78
2021/08/02 10:49:21;;;;;;;;;;;22.20;99.90;;;21.71;49.54;95616.41;10300164;28;2287;-79
2021/08/02 10:54:24;;;;;;;;;;;22.50;99.90;;;21.96;49.42;95620.63;10305415;28;2210;-78
2021/08/02 10:59:27;;;;;;;;;;;22.60;99.90;;;21.19;54.03;95617.25;10298273;28;2370;-79
2021/08/02 11:04:33;;;;;;;;;;;22.10;99.90;;;20.76;56.40;95613.19;10301662;28;2362;-78
2021/08/02 11:09:36;;;;;;;;;;;21.80;99.90;;;20.58;53.97;95620.81;10312020;28;1988;-79
2021/08/02 11:14:39;;;;;;;;;;;21.50;99.90;;;20.42;50.71;95623.41;10287367;28;2349;-78
2021/08/02 11:19:41;;;;;;;;;;;21.30;99.90;;;21.81;48.51;95600.28;10297771;28;2140;-80
2021/08/02 11:24:44;;;;;;;;;;;22.50;99.90;;;22.51;47.43;95602.50;10284583;28;2289;-79
2021/08/02 11:29:47;;;;;;;;;;;24.60;99.90;;;21.77;52.23;95604.09;10291138;28;2376;-79
2021/08/02 11:34:50;;;;;;;;;;;24.80;99.90;;;22.06;50.89;95595.47;10288569;28;2275;-78
2021/08/02 11:39:53;;;;;;;;;;;24.70;99.90;;;22.11;50.08;95592.50;10297056;28;2106;-78
2021/08/02 11:44:56;;;;;;;;;;;24.10;99.90;;;21.72;51.52;95585.97;10288779;28;2339;-78
2021/08/02 11:49:59;;;;;;;;;;;23.30;99.90;;;21.70;50.33;95592.94;10304304;28;2027;-80
2021/08/02 11:55:02;;;;;;;;;;;22.70;99.90;;;22.95;49.74;95580.47;10299817;28;2341;-77
2021/08/02 12:00:05;;;;;;;;;;;23.00;99.90;;;23.06;48.51;95586.19;10301133;28;2247;-78
2021/08/02 12:05:08;;;;;;;;;;;23.60;99.90;;;22.82;46.78;95593.44;10284784;28;2311;-80
2021/08/02 12:10:19;;;;;;;;;;;23.60;99.90;;;23.03;43.36;95582.22;10296523;28;2235;-79
2021/08/02 12:15:36;;;;;;;;;;;23.70;99.90;;;22.74;45.92;95577.22;10294926;28;2401;-79
2021/08/02 12:20:39;;;;;;;;;;;23.70;99.90;;;21.59;42.97;95584.44;10283726;28;2370;-77
2021/08/02 12:25:43;;;;;;;;;;;23.10;99.90;;;21.55;44.60;95576.13;10303306;28;2210;-77
2021/08/02 12:30:45;;;;;;;;;;;22.60;99.90;;;22.12;48.61;95572.19;10302246;28;2258;-79
2021/08/02 12:35:48;;;;;;;;;;;22.70;99.90;;;22.43;44.13;95569.81;10303184;28;2217;-78
2021/08/02 12:40:51;;;;;;;;;;;23.40;99.90;;;22.55;46.13;95562.28;10291914;28;2301;-79
2021/08/02 12:45:54;;;;;;;;;;;23.50;99.90;;;22.58;43.45;95567.06;10282173;28;2313;-79
2021/08/02 12:50:56;;;;;;;;;;;23.70;99.90;;;22.41;46.41;95561.97;10294468;28;2341;-79
2021/08/02 12:55:59;;;;;;;;;;;23.50;99.90;;;22.64;44.86;95554.66;10296357;28;2214;-78
2021/08/02 13:01:02;;;;;;;;;;;23.60;99.90;;;22.84;46.14;95546.50;10282214;28;2403;-78
2021/08/02 13:06:05;;;;;;;;;;;23.60;99.90;;;22.51;43.61;95544.97;10281658;28;2337;-78
2021/08/02 13:11:08;;;;;;;;;;;23.60;99.90;;;22.34;44.68;95535.19;10280556;28;1967;-78
2021/08/02 13:16:11;;;;;;;;;;;23.60;99.90;;;23.19;43.45;95547.31;10296472;28;2428;-78
2021/08/02 13:21:14;;;;;;;;;;;23.70;99.90;;;22.95;42.60;95541.28;10299404;28;2401;-79
2021/08/02 13:31:39;;;;;;;;;;;23.90;99.90;;;23.64;40.63;95534.13;10320617;28;2033;-79
2021/08/02 13:36:42;;;;;;;;;;;24.10;99.90;;;23.24;42.77;95524.31;10303086;28;1957;-79
2021/08/02 13:41:46;;;;;;;;;;;24.30;99.90;;;23.51;44.13;95519.72;10294465;28;2420;-79
2021/08/02 13:46:48;;;;;;;;;;;24.30;99.90;;;23.16;42.54;95526.09;10293463;28;2159;-77
2021/08/02 13:51:51;;;;;;;;;;;24.30;99.90;;;22.51;43.17;95517.59;10278004;28;2282;-79
2021/08/02 13:57:10;;;;;;;;;;;23.80;99.90;;;23.04;42.80;95523.50;10283158;28;2253;-78
2021/08/02 14:02:13;;;;;;;;;;;23.80;99.90;;;22.74;40.97;95514.19;10284110;28;2384;-80
2021/08/02 14:07:16;;;;;;;;;;;23.80;99.90;;;22.08;43.26;95516.56;10298390;28;2270;-80
2021/08/02 14:12:19;;;;;;;;;;;23.20;99.90;;;22.36;42.98;95508.25;10313760;28;2361;-79
2021/08/02 14:17:22;;;;;;;;;;;23.10;99.90;;;22.59;40.88;95508.41;10310702;28;2397;-77
2021/08/02 14:22:25;;;;;;;;;;;23.40;99.90;;;22.82;40.84;95504.97;10315595;28;2295;-77
2021/08/02 14:27:27;;;;;;;;;;;23.60;99.90;;;22.98;40.35;95497.53;10292520;28;2250;-80
2021/08/02 14:32:30;;;;;;;;;;;23.70;99.90;;;22.79;41.73;95497.47;10283910;28;2369;-79
2021/08/02 14:37:33;;;;;;;;;;;23.60;99.90;;;23.34;40.37;95511.94;10280177;28;2230;-78
2021/08/02 14:42:36;;;;;;;;;;;24.00;99.90;;;23.05;43.20;95511.38;10285188;28;2314;-78
2021/08/02 14:47:39;;;;;;;;;;;24.00;99.90;;;22.74;41.07;95505.97;10283379;28;2327;-78
2021/08/02 14:52:41;;;;;;;;;;;23.70;99.90;;;23.53;40.80;95503.69;10289417;28;2258;-79
2021/08/02 14:57:45;;;;;;;;;;;24.10;99.90;;;23.79;41.33;95500.28;10285862;28;2579;-80
2021/08/02 15:02:48;;;;;;;;;;;24.50;99.90;;;23.72;39.75;95497.41;10296308;28;2328;-80
2021/08/02 15:08:02;;;;;;;;;;;24.70;99.90;;;23.67;39.70;95509.50;10297332;28;2262;-78
2021/08/02 15:13:31;;;;;;;;;;;24.60;99.90;;;23.95;39.58;95500.19;10279951;28;2331;-79
2021/08/02 15:18:34;;;;;;;;;;;24.60;99.90;;;22.77;41.85;95494.28;10303902;28;2492;-79
2021/08/02 15:23:38;;;;;;;;;;;24.20;99.90;;;23.03;42.04;95500.00;10294390;28;2291;-79
2021/08/02 15:28:40;;;;;;;;;;;23.90;99.90;;;23.32;42.29;95498.59;10288985;28;2448;-79
2021/08/02 15:33:43;;;;;;;;;;;24.10;99.90;;;23.57;41.46;95495.53;10292983;28;2458;-81
2021/08/02 15:38:46;;;;;;;;;;;24.30;99.90;;;23.46;41.92;95496.13;10303535;28;2326;-79
2021/08/02 15:43:49;;;;;;;;;;;24.40;99.90;;;23.00;43.54;95492.47;10296631;28;2378;-82
2021/08/02 15:48:52;;;;;;;;;;;24.10;99.90;;;23.33;42.33;95491.16;10301770;28;2574;-80
2021/08/02 15:53:55;;;;;;;;;;;23.90;99.90;;;23.37;42.37;95486.56;10296414;28;2274;-80
2021/08/02 15:58:57;;;;;;;;;;;24.10;99.90;;;23.33;42.16;95496.66;10290242;28;2238;-80
2021/08/02 16:04:00;;;;;;;;;;;24.20;99.90;;;23.17;42.34;95494.00;10298865;28;2291;-79
2021/08/02 16:09:03;;;;;;;;;;;24.10;99.90;;;23.05;42.94;95489.44;10301215;28;2430;-82
2021/08/02 16:14:05;;;;;;;;;;;23.90;99.90;;;23.00;44.37;95484.25;10303512;28;2425;-80
2021/08/02 16:19:08;;;;;;;;;;;23.90;99.90;;;22.19;43.20;95491.41;10310746;28;2284;-79
2021/08/02 16:24:11;;;;;;;;;;;23.50;99.90;;;22.09;43.89;95490.78;10306330;28;2363;-78
2021/08/02 16:29:13;;;;;;;;;;;23.20;99.90;;;22.15;43.42;95498.75;10297539;28;2191;-79
2021/08/02 16:34:16;;;;;;;;;;;23.10;99.90;;;22.08;43.85;95496.59;10299645;28;2320;-79
2021/08/02 16:39:19;;;;;;;;;;;23.00;99.90;;;21.54;45.27;95508.09;10297184;28;2286;-79
2021/08/02 16:44:22;;;;;;;;;;;22.70;99.90;;;19.84;51.97;95520.88;10296286;28;2351;-77
2021/08/02 16:49:24;;;;;;;;;;;21.50;99.90;;;19.31;54.60;95530.69;10301254;28;2370;-77
2021/08/02 16:54:27;;;;;;;;;;;20.70;99.90;;;19.03;55.50;95541.38;10316147;28;2582;-79
2021/08/02 16:59:30;;;;;;;;;;;20.20;99.90;;;19.17;56.14;95537.25;10297814;28;2370;-80
2021/08/02 17:04:33;;;;;;;;;;;20.10;99.90;;;19.86;54.20;95537.72;10300563;28;2309;-82
2021/08/02 17:09:37;;;;;;;;;;;20.50;99.90;;;19.39;55.16;95541.50;10309107;28;2465;-79
2021/08/02 17:14:39;;;;;;;;;;;20.60;99.90;;;19.33;56.27;95539.31;10296386;28;2342;-80
2021/08/02 17:19:42;;;;;;;;;;;20.40;99.90;;;19.14;56.47;95537.09;10286287;28;2437;-79
2021/08/02 17:24:45;;;;;;;;;;;20.20;99.90;;;19.07;57.13;95553.97;10290529;28;2469;-80
2021/08/02 17:29:48;;;;;;;;;;;20.10;99.90;;;19.04;57.19;95549.22;10297125;28;2334;-79
2021/08/02 17:34:51;;;;;;;;;;;20.00;99.90;;;18.90;57.82;95546.75;10298587;28;2377;-80
2021/08/02 17:39:53;;;;;;;;;;;20.00;99.90;;;18.82;58.54;95555.75;10286219;28;2785;-81
2021/08/02 17:44:56;;;;;;;;;;;19.80;99.90;;;18.68;58.25;95568.84;10286173;28;2428;-80
2021/08/02 17:49:59;;;;;;;;;;;19.80;99.90;;;18.47;59.05;95573.44;10292991;28;1869;-79
2021/08/02 17:55:02;;;;;;;;;;;19.60;99.90;;;18.40;59.53;95573.94;10290213;28;1899;-81
2021/08/02 18:00:04;;;;;;;;;;;19.50;99.90;;;18.30;60.20;95587.91;10275973;28;1835;-82
2021/08/02 18:05:08;;;;;;;;;;;19.30;99.90;;;18.10;61.19;95579.34;10282316;28;1597;-83
2021/08/02 18:10:11;;;;;;;;;;;19.20;99.90;;;18.00;61.86;95595.22;10288237;28;1510;-80
2021/08/02 18:15:13;;;;;;;;;;;19.00;99.90;;;17.87;62.29;95599.72;10284602;28;2056;-79
2021/08/02 18:20:16;;;;;;;;;;;19.00;99.90;;;17.80;62.93;95600.22;10284179;28;1632;-79
2021/08/02 18:25:19;;;;;;;;;;;18.90;99.90;;;17.73;63.10;95605.38;10297962;28;1402;-79
2021/08/02 18:30:22;;;;;;;;;;;18.90;99.90;;;17.69;63.62;95604.41;10281330;28;1602;-81
2021/08/02 18:35:25;;;;;;;;;;;18.80;99.90;;;17.78;64.20;95602.47;10292641;28;1946;-79
2021/08/02 18:40:28;;;;;;;;;;;18.80;99.90;;;17.73;63.61;95608.09;10301180;28;1667;-78
2021/08/02 18:45:30;;;;;;;;;;;18.80;99.90;;;17.69;64.52;95615.28;10291539;28;1564;-78
2021/08/02 18:50:33;;;;;;;;;;;18.70;99.90;;;17.60;64.11;95622.63;10300385;28;1174;-80
2021/08/02 18:55:36;;;;;;;;;;;18.70;99.90;;;17.40;65.67;95626.81;10293147;28;1923;-79
2021/08/02 19:00:39;;;;;;;;;;;18.60;99.90;;;17.34;66.68;95625.38;10292451;28;1182;-78
2021/08/02 19:05:41;;;;;;;;;;;18.50;99.90;;;17.46;66.11;95628.25;10301305;28;1618;-81
2021/08/02 19:10:44;;;;;;;;;;;18.40;99.90;;;17.44;65.92;95635.13;10284113;28;1466;-78
2021/08/02 19:15:47;;;;;;;;;;;18.50;99.90;;;17.54;66.39;95637.50;10283078;28;1914;-80
2021/08/02 19:20:50;;;;;;;;;;;18.50;99.90;;;17.46;66.69;95638.31;10292332;28;1584;-80
2021/08/02 19:25:53;;;;;;;;;;;18.50;99.90;;;17.34;68.63;95640.88;10287621;28;1272;-81
2021/08/02 19:30:56;;;;;;;;;;;18.40;99.90;;;17.33;68.52;95639.28;10291295;28;1517;-81
2021/08/02 19:35:59;;;;;;;;;;;18.40;99.90;;;17.51;67.76;95651.75;10297749;28;1895;-80
2021/08/02 19:41:02;;;;;;;;;;;18.40;99.90;;;17.47;67.22;95648.06;10297632;28;1567;-81
2021/08/02 19:46:05;;;;;;;;;;;18.40;99.90;;;17.44;68.66;95656.88;10292499;28;1537;-79
2021/08/02 19:51:08;;;;;;;;;;;18.40;99.90;;;17.39;69.12;95662.44;10285270;28;2315;-79
2021/08/02 19:56:10;;;;;;;;;;;18.40;99.90;;;17.14;68.98;95669.47;10289389;28;2559;-79
2021/08/02 20:01:13;;;;;;;;;;;18.30;99.90;;;17.07;69.10;95671.84;10295261;28;2750;-80
2021/08/02 20:06:16;;;;;;;;;;;18.10;99.90;;;17.05;69.99;95672.19;10279871;28;2805;-79
2021/08/02 20:11:18;;;;;;;;;;;18.00;99.90;;;16.91;70.81;95679.63;10298506;28;2813;-79
2021/08/02 20:16:21;;;;;;;;;;;17.90;99.90;;;16.96;71.51;95679.50;10317339;28;2324;-81
2021/08/02 20:21:24;;;;;;;;;;;17.90;99.90;;;17.06;70.65;95684.63;10318596;28;2294;-80
2021/08/02 20:26:27;;;;;;;;;;;17.90;99.90;;;17.05;67.82;95715.63;10282362;28;2285;-80
2021/08/02 20:31:30;;;;;;;;;;;18.00;99.90;;;16.70;64.02;95718.22;10293237;28;2552;-80
2021/08/02 20:36:33;;;;;;;;;;;17.80;99.90;;;16.24;64.28;95709.69;10283939;28;2321;-82
2021/08/02 20:41:35;;;;;;;;;;;17.40;99.90;;;15.21;71.56;95710.47;10281407;28;2452;-81
2021/08/02 20:46:38;;;;;;;;;;;16.70;99.90;;;14.81;76.77;95702.09;10298588;28;2401;-81
2021/08/02 20:51:41;;;;;;;;;;;16.10;99.90;;;14.65;76.94;95700.81;10305730;28;2282;-80
2021/08/02 20:56:43;;;;;;;;;;;15.80;99.90;;;14.71;78.91;95716.66;10310294;28;2312;-80
2021/08/02 21:01:46;;;;;;;;;;;15.80;99.90;;;14.84;79.04;95725.84;10309728;28;2318;-79
2021/08/02 21:06:49;;;;;;;;;;;15.80;99.90;;;14.77;79.40;95726.25;10305117;28;2252;-81
2021/08/02 21:11:52;;;;;;;;;;;15.90;99.90;;;14.15;92.95;95746.59;10309283;28;2298;-79
2021/08/02 21:16:54;;;;;;;;;;;15.50;99.90;;;13.83;100.00;95734.69;10314576;28;2432;-79
2021/08/02 21:21:57;;;;;;;;;;;15.00;99.90;;;13.72;100.00;95727.81;10302590;28;2227;-79
2021/08/02 21:27:00;;;;;;;;;;;14.70;99.90;;;13.72;100.00;95733.22;10292901;28;2288;-79
2021/08/02 21:32:03;;;;;;;;;;;14.70;99.90;;;13.85;100.00;95729.78;10300340;28;2335;-80
2021/08/02 21:37:05;;;;;;;;;;;14.70;99.90;;;13.87;100.00;95722.19;10292245;28;2271;-79
2021/08/02 21:42:08;;;;;;;;;;;14.70;99.90;;;13.95;100.00;95720.72;10303589;28;2355;-80
2021/08/02 21:47:11;;;;;;;;;;;14.80;99.90;;;14.07;100.00;95724.53;10295597;28;2337;-79
2021/08/02 21:52:14;;;;;;;;;;;14.90;99.90;;;14.19;100.00;95725.97;10280639;28;2468;-79
2021/08/02 21:57:16;;;;;;;;;;;15.00;99.90;;;14.25;100.00;95732.88;10274913;28;2363;-80
2021/08/02 22:02:19;;;;;;;;;;;15.10;99.90;;;14.41;100.00;95749.66;10290052;28;2730;-79
2021/08/02 22:07:23;;;;;;;;;;;15.20;99.90;;;14.44;100.00;95749.84;10284497;28;2302;-81
2021/08/02 22:12:27;;;;;;;;;;;15.30;99.90;;;14.39;100.00;95768.88;10286879;28;2352;-80
2021/08/02 22:17:30;;;;;;;;;;;15.30;99.90;;;14.28;100.00;95770.16;10279570;28;2352;-79
2021/08/02 22:22:33;;;;;;;;;;;15.20;99.90;;;14.08;100.00;95784.81;10278974;28;2291;-80
2021/08/02 22:27:36;;;;;;;;;;;15.10;99.90;;;13.79;100.00;95782.28;10282681;28;2285;-81
2021/08/02 22:32:38;;;;;;;;;;;14.90;99.90;;;13.74;100.00;95782.34;10293992;28;2346;-80
2021/08/02 22:37:42;;;;;;;;;;;14.80;99.90;;;13.69;100.00;95782.44;10297682;28;2250;-79
2021/08/02 22:42:45;;;;;;;;;;;14.70;99.90;;;13.62;100.00;95777.41;10313095;28;2327;-78
2021/08/02 22:47:47;;;;;;;;;;;14.60;99.90;;;13.57;100.00;95776.69;10312811;28;2301;-79
2021/08/02 22:52:50;;;;;;;;;;;14.60;99.90;;;13.46;100.00;95768.72;10302325;28;2203;-79
2021/08/02 22:57:54;;;;;;;;;;;14.50;99.90;;;13.28;100.00;95766.81;10299987;28;1949;-78
2021/08/02 23:02:58;;;;;;;;;;;14.40;99.90;;;13.33;100.00;95760.53;10321480;28;1917;-78
2021/08/02 23:08:01;;;;;;;;;;;14.40;99.90;;;13.43;100.00;95766.63;10313180;28;2475;-78
2021/08/02 23:13:03;;;;;;;;;;;14.40;99.90;;;13.55;100.00;95751.84;10314003;28;2273;-81
2021/08/02 23:18:06;;;;;;;;;;;14.50;99.90;;;13.59;100.00;95744.78;10292631;28;2120;-81